createdAt,value
2019-03-13T00:02:22.038Z,99327.45
2019-03-13T00:04:51.235Z,99341.28
2019-03-13T00:07:20.538Z,99358.20
2019-03-13T00:09:49.707Z,99372.55
2019-03-13T00:12:20.709Z,99385.44
2019-03-13T00:14:50.042Z,99408.23
2019-03-13T00:17:19.267Z,99425.45
2019-03-13T00:19:48.935Z,99420.22
2019-03-13T00:22:18.125Z,99430.32
2019-03-13T00:24:47.295Z,99422.20
2019-03-13T00:27:16.312Z,99435.17
2019-03-13T00:29:45.405Z,99456.45
2019-03-13T00:32:14.793Z,99458.72
2019-03-13T00:34:43.866Z,99478.02
2019-03-13T00:37:13.185Z,99470.11
2019-03-13T00:39:42.814Z,99491.34
2019-03-13T00:42:11.874Z,99490.72
2019-03-13T00:44:41.134Z,99501.27
2019-03-13T00:47:10.212Z,99518.30
2019-03-13T00:49:39.240Z,99542.73
2019-03-13T00:52:08.510Z,99553.95
2019-03-13T00:54:37.600Z,99538.29
2019-03-13T00:57:07.110Z,99515.30
2019-03-13T00:59:36.182Z,99535.75
2019-03-13T01:02:23.179Z,99546.09
2019-03-13T01:05:05.861Z,99556.04
2019-03-13T01:07:35.009Z,99590.59
2019-03-13T01:10:04.443Z,99589.00
2019-03-13T01:12:33.577Z,99594.84
2019-03-13T01:15:02.809Z,99600.38
2019-03-13T01:17:31.866Z,99604.08
2019-03-13T01:20:01.146Z,99617.52
2019-03-13T01:22:30.245Z,99618.95
2019-03-13T01:24:59.552Z,99625.83
2019-03-13T01:27:28.907Z,99639.87
2019-03-13T01:29:58.010Z,99632.34
2019-03-13T01:32:42.008Z,99635.95
2019-03-13T01:35:30.043Z,99630.70
2019-03-13T01:37:59.081Z,99641.77
2019-03-13T01:40:28.325Z,99651.83
2019-03-13T01:42:57.375Z,99650.86
2019-03-13T01:45:28.359Z,99658.02
2019-03-13T01:47:57.618Z,99649.52
2019-03-13T01:50:26.870Z,99646.49
2019-03-13T01:52:56.085Z,99658.69
2019-03-13T01:55:25.446Z,99663.07
2019-03-13T01:57:54.503Z,99669.29
2019-03-13T02:00:23.909Z,99676.11
2019-03-13T02:02:52.971Z,99679.55
2019-03-13T02:05:22.224Z,99684.30
2019-03-13T02:07:51.491Z,99680.03
2019-03-13T02:10:20.582Z,99683.08
2019-03-13T02:12:49.900Z,99688.52
2019-03-13T02:15:20.034Z,99687.19
2019-03-13T02:17:49.359Z,99681.36
2019-03-13T02:20:18.693Z,99678.41
2019-03-13T02:22:47.747Z,99688.33
2019-03-13T02:25:17.982Z,99683.08
2019-03-13T02:27:47.183Z,99680.59
2019-03-13T02:30:16.610Z,99686.31
2019-03-13T02:32:45.633Z,99684.60
2019-03-13T02:35:15.006Z,99687.08
2019-03-13T02:37:44.056Z,99692.38
2019-03-13T02:40:13.326Z,99689.56
2019-03-13T02:42:42.425Z,99700.80
2019-03-13T02:45:12.006Z,99699.31
2019-03-13T02:47:41.142Z,99699.16
2019-03-13T02:50:11.107Z,99706.66
2019-03-13T02:52:40.565Z,99714.15
2019-03-13T02:55:09.765Z,99711.79
2019-03-13T02:57:38.793Z,99720.04
2019-03-13T03:00:10.492Z,99723.85
2019-03-13T03:02:43.390Z,99731.47
2019-03-13T03:05:12.452Z,99725.05
2019-03-13T03:07:41.562Z,99725.68
2019-03-13T03:10:11.633Z,99726.00
2019-03-13T03:12:40.997Z,99733.01
2019-03-13T03:15:12.445Z,99738.19
2019-03-13T03:17:41.617Z,99739.02
2019-03-13T03:20:13.617Z,99736.23
2019-03-13T03:22:42.704Z,99741.57
2019-03-13T03:25:12.642Z,99730.45
2019-03-13T03:27:41.691Z,99729.31
2019-03-13T03:30:14.308Z,99733.44
2019-03-13T03:32:43.724Z,99731.67
2019-03-13T03:35:12.945Z,99739.60
2019-03-13T03:37:42.099Z,99732.29
2019-03-13T03:40:12.715Z,99736.75
2019-03-13T03:42:41.765Z,99745.36
2019-03-13T03:45:10.860Z,99749.70
2019-03-13T03:47:40.102Z,99740.37
2019-03-13T03:50:11.000Z,99752.48
2019-03-13T03:52:40.178Z,99757.44
2019-03-13T03:55:09.655Z,99768.92
2019-03-13T03:57:38.678Z,99768.75
2019-03-13T04:00:08.383Z,99766.84
2019-03-13T04:02:37.439Z,99779.45
2019-03-13T04:05:06.830Z,99770.14
2019-03-13T04:07:35.993Z,99770.68
2019-03-13T04:10:05.253Z,99779.11
2019-03-13T04:12:34.301Z,99776.97
2019-03-13T04:15:03.405Z,99786.69
2019-03-13T04:17:32.554Z,99788.26
2019-03-13T04:20:01.635Z,99789.48
2019-03-13T04:22:30.821Z,99783.28
2019-03-13T04:25:12.679Z,99776.50
2019-03-13T04:27:42.040Z,99786.30
2019-03-13T04:30:11.516Z,99790.91
2019-03-13T04:32:40.576Z,99792.71
2019-03-13T04:35:09.751Z,99789.27
2019-03-13T04:37:39.016Z,99793.67
2019-03-13T04:40:08.708Z,99800.39
2019-03-13T04:42:37.789Z,99798.72
2019-03-13T04:45:06.999Z,99809.63
2019-03-13T04:47:36.019Z,99808.23
2019-03-13T04:50:05.141Z,99800.15
2019-03-13T04:52:34.198Z,99802.50
2019-03-13T04:55:03.466Z,99795.04
2019-03-13T04:57:32.649Z,99801.83
2019-03-13T05:00:02.094Z,99802.13
2019-03-13T05:02:31.128Z,99801.95
2019-03-13T05:05:00.420Z,99797.08
2019-03-13T05:07:29.584Z,99791.28
2019-03-13T05:09:58.764Z,99792.50
2019-03-13T05:12:28.025Z,99788.19
2019-03-13T05:14:57.227Z,99792.83
2019-03-13T05:17:26.361Z,99803.19
2019-03-13T05:19:55.785Z,99809.91
2019-03-13T05:22:24.917Z,99804.95
2019-03-13T05:24:54.406Z,99801.91
2019-03-13T05:27:23.426Z,99798.62
2019-03-13T05:29:52.486Z,99798.69
2019-03-13T05:32:21.854Z,99803.84
2019-03-13T05:34:50.948Z,99808.14
2019-03-13T05:37:20.398Z,99811.77
2019-03-13T05:39:49.465Z,99817.03
2019-03-13T05:42:18.564Z,99819.95
2019-03-13T05:44:47.923Z,99822.22
2019-03-13T05:47:17.012Z,99829.34
2019-03-13T05:49:46.434Z,99822.31
2019-03-13T05:52:15.489Z,99829.38
2019-03-13T05:54:44.723Z,99833.91
2019-03-13T05:57:14.213Z,99837.66
2019-03-13T05:59:43.488Z,99840.13
2019-03-13T06:02:12.563Z,99834.21
2019-03-13T06:04:41.733Z,99838.11
2019-03-13T06:07:10.964Z,99839.63
2019-03-13T06:09:40.206Z,99850.02
2019-03-13T06:12:09.434Z,99848.09
2019-03-13T06:14:38.676Z,99850.88
2019-03-13T06:17:07.946Z,99851.16
2019-03-13T06:19:37.004Z,99845.36
2019-03-13T06:22:06.188Z,99858.29
2019-03-13T06:24:36.082Z,99859.78
2019-03-13T06:27:05.462Z,99839.97
2019-03-13T06:29:34.751Z,99849.02
2019-03-13T06:32:04.154Z,99852.58
2019-03-13T06:34:33.211Z,99851.56
2019-03-13T06:37:02.573Z,99850.61
2019-03-13T06:39:32.191Z,99857.05
2019-03-13T06:42:01.303Z,99849.52
2019-03-13T06:44:30.300Z,99853.16
2019-03-13T06:46:59.640Z,99836.97
2019-03-13T06:49:28.659Z,99842.48
2019-03-13T06:51:57.854Z,99827.58
2019-03-13T06:54:26.987Z,99835.16
2019-03-13T06:56:56.392Z,99833.55
2019-03-13T06:59:32.722Z,99832.34
2019-03-13T07:02:14.311Z,99834.36
2019-03-13T07:05:01.186Z,99823.20
2019-03-13T07:07:52.087Z,99819.73
2019-03-13T07:10:46.283Z,99816.76
2019-03-13T07:13:24.659Z,99806.72
2019-03-13T07:16:11.621Z,99807.77
2019-03-13T07:18:58.198Z,99808.91
2019-03-13T07:21:48.980Z,99805.80
2019-03-13T07:24:39.969Z,99812.56
2019-03-13T07:27:34.107Z,99814.14
2019-03-13T07:30:12.332Z,99811.79
2019-03-13T07:32:50.371Z,99814.73
2019-03-13T07:35:50.722Z,99818.54
2019-03-13T07:38:47.762Z,99826.92
2019-03-13T07:41:37.333Z,99841.08
2019-03-13T07:44:28.295Z,99839.73
2019-03-13T07:47:13.412Z,99840.50
2019-03-13T07:50:10.462Z,99832.88
2019-03-13T07:53:04.505Z,99841.03
2019-03-13T07:55:52.619Z,99840.82
2019-03-13T07:58:30.714Z,99832.77
2019-03-13T08:01:31.283Z,99824.34
2019-03-13T08:04:25.730Z,99830.44
2019-03-13T08:07:18.299Z,99822.69
2019-03-13T08:09:54.474Z,99829.23
2019-03-13T08:12:49.962Z,99833.73
2019-03-13T08:15:29.094Z,99836.54
2019-03-13T08:18:35.508Z,99847.77
2019-03-13T08:21:38.794Z,99855.25
2019-03-13T08:24:23.696Z,99845.51
2019-03-13T08:27:09.165Z,99862.63
2019-03-13T08:29:55.399Z,99853.98
2019-03-13T08:32:58.998Z,99849.58
2019-03-13T08:35:45.522Z,99846.30
2019-03-13T08:38:37.697Z,99849.53
2019-03-13T08:41:15.669Z,99835.19
2019-03-13T08:44:10.627Z,99829.66
2019-03-13T08:46:46.978Z,99832.39
2019-03-13T08:49:37.933Z,99827.28
2019-03-13T08:52:22.549Z,99822.20
2019-03-13T08:55:15.432Z,99815.72
2019-03-13T08:58:19.052Z,99801.73
2019-03-13T09:01:06.169Z,99802.84
2019-03-13T09:03:44.841Z,99789.75
2019-03-13T09:06:27.052Z,99793.28
2019-03-13T09:09:15.767Z,99798.47
2019-03-13T09:11:54.380Z,99794.66
2019-03-13T09:14:41.431Z,99772.69
2019-03-13T09:17:26.067Z,99792.42
2019-03-13T09:20:14.058Z,99808.81
2019-03-13T09:22:49.672Z,99784.51
2019-03-13T09:25:46.299Z,99792.91
2019-03-13T09:28:38.805Z,99770.05
2019-03-13T09:31:25.792Z,99773.66
2019-03-13T09:34:10.415Z,99769.11
2019-03-13T09:37:04.466Z,99767.57
2019-03-13T09:39:52.580Z,99765.23
2019-03-13T09:42:40.840Z,99772.36
2019-03-13T09:45:26.287Z,99771.63
2019-03-13T09:48:23.015Z,99769.05
2019-03-13T09:51:08.923Z,99771.55
2019-03-13T09:53:46.611Z,99759.22
2019-03-13T09:56:33.443Z,99778.17
2019-03-13T09:59:20.073Z,99770.95
2019-03-13T10:02:13.063Z,99756.74
2019-03-13T10:05:00.008Z,99758.81
2019-03-13T10:07:51.052Z,99769.11
2019-03-13T10:10:38.648Z,99763.13
2019-03-13T10:13:26.923Z,99764.73
2019-03-13T10:16:14.947Z,99757.65
2019-03-13T10:18:52.557Z,99758.15
2019-03-13T10:21:41.249Z,99766.91
2019-03-13T10:24:32.284Z,99760.42
2019-03-13T10:27:19.086Z,99760.98
2019-03-13T10:30:13.321Z,99747.52
2019-03-13T10:33:01.615Z,99747.95
2019-03-13T10:35:40.160Z,99743.04
2019-03-13T10:38:27.075Z,99732.64
2019-03-13T10:41:21.393Z,99717.48
2019-03-13T10:44:14.305Z,99721.08
2019-03-13T10:47:00.903Z,99722.93
2019-03-13T10:49:48.907Z,99714.93
2019-03-13T10:52:36.975Z,99715.55
2019-03-13T10:55:16.290Z,99719.78
2019-03-13T10:58:07.540Z,99707.44
2019-03-13T11:00:45.661Z,99705.59
2019-03-13T11:03:36.869Z,99707.08
2019-03-13T11:06:29.172Z,99710.19
2019-03-13T11:09:17.025Z,99713.05
2019-03-13T11:12:00.649Z,99712.14
2019-03-13T11:14:57.969Z,99719.35
2019-03-13T11:17:39.115Z,99710.17
2019-03-13T11:20:15.461Z,99727.52
2019-03-13T11:23:02.495Z,99717.23
2019-03-13T11:25:43.524Z,99716.22
2019-03-13T11:28:34.738Z,99715.92
2019-03-13T11:31:28.753Z,99716.24
2019-03-13T11:34:07.011Z,99754.02
2019-03-13T11:37:07.620Z,99729.84
2019-03-13T11:39:44.664Z,99726.55
2019-03-13T11:42:27.896Z,99719.56
2019-03-13T11:45:08.456Z,99716.00
2019-03-13T11:47:55.319Z,99711.82
2019-03-13T11:50:46.384Z,99707.69
2019-03-13T11:53:29.836Z,99711.50
2019-03-13T11:56:16.878Z,99700.80
2019-03-13T11:58:52.480Z,99694.99
2019-03-13T12:01:49.698Z,99694.13
2019-03-13T12:04:37.703Z,99683.50
2019-03-13T12:07:28.598Z,99681.05
2019-03-13T12:10:10.409Z,99666.25
2019-03-13T12:13:13.650Z,99666.78
2019-03-13T12:16:11.245Z,99663.20
2019-03-13T12:19:05.301Z,99653.84
2019-03-13T12:21:59.532Z,99659.78
2019-03-13T12:24:45.216Z,99653.52
2019-03-13T12:27:36.501Z,99642.84
2019-03-13T12:30:29.017Z,99626.84
2019-03-13T12:33:26.272Z,99635.03
2019-03-13T12:36:13.142Z,99628.73
2019-03-13T12:39:07.208Z,99624.95
2019-03-13T12:41:55.677Z,99627.28
2019-03-13T12:44:31.116Z,99622.17
2019-03-13T12:47:18.030Z,99629.28
2019-03-13T12:50:04.283Z,99619.13
2019-03-13T12:52:51.107Z,99611.44
2019-03-13T12:55:48.119Z,99613.78
2019-03-13T12:58:35.213Z,99617.88
2019-03-13T13:01:18.965Z,99596.66
2019-03-13T13:03:55.614Z,99600.94
2019-03-13T13:06:33.844Z,99601.37
2019-03-13T13:09:19.396Z,99611.39
2019-03-13T13:12:07.655Z,99608.01
2019-03-13T13:14:53.364Z,99610.11
2019-03-13T13:17:44.981Z,99621.83
2019-03-13T13:20:14.028Z,99601.52
2019-03-13T13:22:43.219Z,99619.94
2019-03-13T13:25:12.451Z,99616.59
2019-03-13T13:27:41.577Z,99621.66
2019-03-13T13:30:11.904Z,99614.12
2019-03-13T13:32:41.138Z,99620.22
2019-03-13T13:35:10.416Z,99610.28
2019-03-13T13:37:39.435Z,99610.95
2019-03-13T13:40:09.136Z,99605.72
2019-03-13T13:42:38.208Z,99610.44
2019-03-13T13:45:08.143Z,99603.73
2019-03-13T13:47:37.376Z,99602.34
2019-03-13T13:50:07.939Z,99606.37
2019-03-13T13:52:37.098Z,99607.53
2019-03-13T13:55:06.179Z,99609.53
2019-03-13T13:57:35.193Z,99603.88
2019-03-13T14:00:04.822Z,99603.86
2019-03-13T14:02:33.962Z,99603.37
2019-03-13T14:05:03.011Z,99602.97
2019-03-13T14:07:33.089Z,99599.63
2019-03-13T14:10:02.386Z,99606.74
2019-03-13T14:12:31.413Z,99589.59
2019-03-13T14:15:00.790Z,99598.41
2019-03-13T14:17:30.033Z,99603.02
2019-03-13T14:19:59.129Z,99592.30
2019-03-13T14:22:28.392Z,99592.69
2019-03-13T14:24:57.641Z,99598.58
2019-03-13T14:27:26.850Z,99594.77
2019-03-13T14:29:56.128Z,99601.14
2019-03-13T14:32:25.259Z,99593.97
2019-03-13T14:34:54.602Z,99589.09
2019-03-13T14:37:23.786Z,99584.19
2019-03-13T14:39:52.888Z,99577.38
2019-03-13T14:42:22.122Z,99597.95
2019-03-13T14:44:51.497Z,99583.94
2019-03-13T14:47:20.569Z,99571.56
2019-03-13T14:49:49.851Z,99591.22
2019-03-13T14:52:19.133Z,99584.94
2019-03-13T14:54:48.351Z,99586.12
2019-03-13T14:57:17.458Z,99586.50
2019-03-13T14:59:46.803Z,99582.60
2019-03-13T15:02:16.002Z,99594.61
2019-03-13T15:04:45.172Z,99597.37
2019-03-13T15:07:14.433Z,99607.95
2019-03-13T15:09:43.666Z,99601.75
2019-03-13T15:12:13.004Z,99586.02
2019-03-13T15:14:42.071Z,99599.83
2019-03-13T15:17:11.292Z,99593.03
2019-03-13T15:19:40.719Z,99595.88
2019-03-13T15:22:09.779Z,99584.88
2019-03-13T15:24:38.866Z,99587.84
2019-03-13T15:27:08.065Z,99562.27
2019-03-13T15:29:37.452Z,99556.22
2019-03-13T15:32:06.764Z,99565.87
2019-03-13T15:34:35.859Z,99563.00
2019-03-13T15:37:05.215Z,99563.81
2019-03-13T15:39:34.256Z,99569.13
2019-03-13T15:42:03.473Z,99568.52
2019-03-13T15:44:32.741Z,99565.63
2019-03-13T15:47:01.939Z,99566.67
2019-03-13T15:49:31.171Z,99577.49
2019-03-13T15:52:00.383Z,99573.05
2019-03-13T15:54:29.590Z,99566.66
2019-03-13T15:56:58.837Z,99567.91
2019-03-13T15:59:28.038Z,99561.41
2019-03-13T16:01:57.338Z,99564.29
2019-03-13T16:04:26.617Z,99564.58
2019-03-13T16:06:56.340Z,99565.07
2019-03-13T16:09:26.001Z,99558.31
2019-03-13T16:11:55.233Z,99550.95
2019-03-13T16:14:24.418Z,99550.87
2019-03-13T16:16:53.513Z,99550.28
2019-03-13T16:19:22.833Z,99548.83
2019-03-13T16:21:51.986Z,99544.43
2019-03-13T16:24:21.814Z,99550.72
2019-03-13T16:26:51.014Z,99553.41
2019-03-13T16:29:23.283Z,99557.05
2019-03-13T16:31:53.806Z,99544.92
2019-03-13T16:34:23.234Z,99546.59
2019-03-13T16:36:52.267Z,99548.52
2019-03-13T16:39:21.588Z,99532.88
2019-03-13T16:41:50.644Z,99541.45
2019-03-13T16:44:19.883Z,99531.79
2019-03-13T16:46:49.253Z,99549.48
2019-03-13T16:49:18.570Z,99539.11
2019-03-13T16:51:47.626Z,99543.53
2019-03-13T16:54:16.777Z,99544.96
2019-03-13T16:56:46.023Z,99543.75
2019-03-13T16:59:15.372Z,99544.28
2019-03-13T17:01:44.505Z,99547.34
2019-03-13T17:04:13.904Z,99538.81
2019-03-13T17:06:42.991Z,99541.41
2019-03-13T17:09:12.095Z,99534.83
2019-03-13T17:11:41.554Z,99541.43
2019-03-13T17:14:10.751Z,99540.72
2019-03-13T17:16:39.807Z,99547.41
2019-03-13T17:19:08.973Z,99544.20
2019-03-13T17:21:38.195Z,99549.13
2019-03-13T17:24:07.425Z,99543.69
2019-03-13T17:26:36.609Z,99543.45
2019-03-13T17:29:05.830Z,99544.82
2019-03-13T17:31:35.101Z,99545.41
2019-03-13T17:34:06.012Z,99541.24
2019-03-13T17:36:35.052Z,99546.00
2019-03-13T17:39:05.751Z,99540.44
2019-03-13T17:41:34.987Z,99531.79
2019-03-13T17:44:04.088Z,99529.95
2019-03-13T17:46:33.374Z,99530.03
2019-03-13T17:49:02.607Z,99532.84
2019-03-13T17:51:31.835Z,99542.44
2019-03-13T17:54:00.931Z,99530.84
2019-03-13T17:56:30.170Z,99536.20
2019-03-13T17:58:59.533Z,99530.45
2019-03-13T18:01:28.634Z,99539.48
2019-03-13T18:03:57.972Z,99540.11
2019-03-13T18:06:27.083Z,99540.02
2019-03-13T18:08:56.447Z,99557.62
2019-03-13T18:11:25.553Z,99566.33
2019-03-13T18:13:54.783Z,99562.63
2019-03-13T18:16:24.157Z,99581.47
2019-03-13T18:18:53.235Z,99590.91
2019-03-13T18:21:22.618Z,99608.28
2019-03-13T18:23:51.790Z,99625.53
2019-03-13T18:26:20.894Z,99637.83
2019-03-13T18:28:50.083Z,99656.52
2019-03-13T18:31:19.313Z,99649.54
2019-03-13T18:33:48.521Z,99650.22
2019-03-13T18:36:17.788Z,99658.48
2019-03-13T18:38:46.871Z,99650.66
2019-03-13T18:41:16.327Z,99650.36
2019-03-13T18:43:45.692Z,99654.62
2019-03-13T18:46:14.797Z,99655.34
2019-03-13T18:48:44.035Z,99663.16
2019-03-13T18:51:13.599Z,99662.62
2019-03-13T18:53:42.815Z,99656.69
2019-03-13T18:56:11.885Z,99658.52
2019-03-13T18:58:40.945Z,99663.55
2019-03-13T19:01:10.187Z,99658.41
2019-03-13T19:03:39.242Z,99652.73
2019-03-13T19:06:08.346Z,99664.83
2019-03-13T19:08:37.701Z,99660.44
2019-03-13T19:11:07.117Z,99676.34
2019-03-13T19:13:36.153Z,99672.65
2019-03-13T19:16:05.299Z,99672.15
2019-03-13T19:18:34.442Z,99681.80
2019-03-13T19:21:03.861Z,99675.03
2019-03-13T19:23:32.951Z,99686.63
2019-03-13T19:26:02.383Z,99685.60
2019-03-13T19:28:31.429Z,99674.62
2019-03-13T19:31:00.671Z,99671.22
2019-03-13T19:33:30.060Z,99672.25
2019-03-13T19:35:59.147Z,99671.76
2019-03-13T19:38:28.323Z,99667.55
2019-03-13T19:40:57.416Z,99669.00
2019-03-13T19:43:26.841Z,99666.58
2019-03-13T19:45:56.030Z,99670.20
2019-03-13T19:48:25.263Z,99661.10
2019-03-13T19:50:56.597Z,99661.69
2019-03-13T19:53:25.719Z,99664.97
2019-03-13T19:55:54.895Z,99672.86
2019-03-13T19:58:24.236Z,99690.73
2019-03-13T20:00:53.374Z,99669.06
2019-03-13T20:03:22.502Z,99676.97
2019-03-13T20:05:51.775Z,99674.51
2019-03-13T20:08:21.010Z,99678.02
2019-03-13T20:10:50.193Z,99676.77
2019-03-13T20:13:19.510Z,99679.92
2019-03-13T20:15:48.990Z,99671.58
2019-03-13T20:18:18.072Z,99671.28
2019-03-13T20:20:47.164Z,99666.18
2019-03-13T20:23:16.300Z,99673.28
2019-03-13T20:25:45.408Z,99661.33
2019-03-13T20:28:14.616Z,99668.92
2019-03-13T20:30:44.200Z,99679.94
2019-03-13T20:33:13.276Z,99680.98
2019-03-13T20:35:42.559Z,99679.52
2019-03-13T20:38:11.614Z,99690.81
2019-03-13T20:40:40.998Z,99694.02
2019-03-13T20:43:10.067Z,99695.92
2019-03-13T20:45:41.581Z,99695.84
2019-03-13T20:48:11.489Z,99699.42
2019-03-13T20:50:40.926Z,99703.67
2019-03-13T20:53:09.971Z,99702.16
2019-03-13T20:55:39.068Z,99706.14
2019-03-13T20:58:08.442Z,99717.94
2019-03-13T21:00:37.542Z,99726.80
2019-03-13T21:03:06.859Z,99738.98
2019-03-13T21:05:35.970Z,99745.64
2019-03-13T21:08:05.275Z,99738.73
2019-03-13T21:10:34.521Z,99738.86
2019-03-13T21:13:03.838Z,99742.58
2019-03-13T21:15:33.953Z,99750.08
2019-03-13T21:18:03.047Z,99748.09
2019-03-13T21:20:32.387Z,99740.57
2019-03-13T21:23:01.444Z,99748.44
2019-03-13T21:25:31.012Z,99746.64
2019-03-13T21:28:00.052Z,99748.75
2019-03-13T21:30:29.743Z,99751.91
2019-03-13T21:32:58.872Z,99751.88
2019-03-13T21:35:28.019Z,99754.64
2019-03-13T21:37:57.134Z,99754.33
2019-03-13T21:40:26.406Z,99757.42
2019-03-13T21:42:55.819Z,99758.14
2019-03-13T21:45:24.992Z,99761.36
2019-03-13T21:47:58.985Z,99759.72
2019-03-13T21:50:28.178Z,99755.53
2019-03-13T21:52:57.445Z,99758.34
2019-03-13T21:55:27.530Z,99765.63
2019-03-13T21:57:56.935Z,99770.22
2019-03-13T22:00:26.090Z,99776.75
2019-03-13T22:02:55.445Z,99782.20
2019-03-13T22:05:27.226Z,99782.63
2019-03-13T22:07:55.302Z,99780.28
2019-03-13T22:10:24.524Z,99785.95
2019-03-13T22:12:53.800Z,99795.09
2019-03-13T22:15:22.984Z,99799.67
2019-03-13T22:17:52.117Z,99799.58
2019-03-13T22:20:21.307Z,99799.02
2019-03-13T22:22:53.428Z,99809.13
2019-03-13T22:25:22.779Z,99809.50
2019-03-13T22:27:52.113Z,99819.47
2019-03-13T22:30:21.731Z,99820.15
2019-03-13T22:32:50.986Z,99827.49
2019-03-13T22:35:19.994Z,99826.81
2019-03-13T22:37:49.159Z,99830.52
2019-03-13T22:40:19.204Z,99833.00
2019-03-13T22:42:48.438Z,99834.86
2019-03-13T22:45:18.081Z,99836.97
2019-03-13T22:47:47.225Z,99830.81
2019-03-13T22:50:17.499Z,99835.11
2019-03-13T22:52:46.540Z,99832.51
2019-03-13T22:55:15.718Z,99836.45
2019-03-13T22:57:45.157Z,99844.59
2019-03-13T23:00:47.343Z,99855.94
2019-03-13T23:03:16.849Z,99861.45
2019-03-13T23:05:45.964Z,99865.44
2019-03-13T23:08:15.019Z,99871.31
2019-03-13T23:10:44.050Z,99869.67
2019-03-13T23:13:13.245Z,99884.51
2019-03-13T23:15:42.308Z,99882.62
2019-03-13T23:18:11.557Z,99884.82
2019-03-13T23:20:40.823Z,99882.08
2019-03-13T23:23:09.969Z,99872.47
2019-03-13T23:25:39.218Z,99878.03
2019-03-13T23:28:08.396Z,99880.04
2019-03-13T23:30:37.907Z,99887.24
2019-03-13T23:33:06.921Z,99890.08
2019-03-13T23:35:36.084Z,99882.69
2019-03-13T23:38:05.543Z,99896.00
2019-03-13T23:40:34.622Z,99898.67
2019-03-13T23:43:03.737Z,99894.55
2019-03-13T23:45:32.996Z,99887.53
2019-03-13T23:48:02.310Z,99881.47
2019-03-13T23:50:31.457Z,99875.70
2019-03-13T23:53:00.572Z,99883.14
2019-03-13T23:55:29.664Z,99887.05
2019-03-13T23:57:58.762Z,99883.46
